Fort Myers, FL (33918)

8:24 PM EST on January 29, 2015 (GMT -0500)
Grandma-Grandpa House | Change Station
CLOSE
Current Station
Personal Weather Station
Location: North Fort Myers, FL
Elevation: 5 ft
Nearby Weather Stations

Elev 5 ft 26.68 °N, 81.88 °W | Updated 7 seconds ago

Partly Cloudy
Partly Cloudy
63.6 °F
Feels Like 63.6 °F
N
0.0
Wind Variable Wind from NE
Gusts 0.0 mph

Today
High -- | Low -- °F
--% Chance of Precip.
Yesterday
High -- | Low -- °F
Precip. -- in
7:14 AM 6:07 PM
Waxing Gibbous, 78% visible
Pressure 30.23 in
Visibility 10.0 miles
Clouds Overcast 5500 ft
Dew Point 50 °F
Humidity 61%
Rainfall 0.00 in
Snow Depth Not available.
UV 0 out of 12
Pollen 8.90 out of 12
Air Quality Not available.
Flu Activity Not available.
METAR KFMY 300053Z 05005KT 10SM OVC055 18/10 A3022 RMK AO2 SLP235 T01830100

More Conditions Fewer Conditions

Pressure 30.23 in
Visibility 10.0 miles
Clouds Overcast 5500 ft
Dew Point 50 °F
Humidity 61%
Rainfall 0.00 in
Snow Depth Not available.
UV 0 out of 12
Pollen 8.90 out of 12
Air Quality Not available.
Flu Activity Not available.
METAR KFMY 300053Z 05005KT 10SM OVC055 18/10 A3022 RMK AO2 SLP235 T01830100

More Conditions Fewer Conditions

10-Day Weather Forecast

Almanac

Astronomy

Jan. 29, 2015 Rise Set
Actual Time
Civil Twilight
Nautical Twilight
Astronomical Twilight
Moon
Length of Visible Light
Length of Day
Tomorrow will be .
, % of the Moon is Illuminated

Today's Extremes

State Highs State Lows

Community

WunderPhotos

Upload Photos

1,791,668 photos uploaded!

WunderBlogs® & News

Nearby

Air Quality

  Air Quality AQ Index Pollutant
Not available.

Snow Depth

Station Depth Elevation

Earthquake Activity

City Distance Mag. Time & Date
Minimum magnitude displayed is 2.5.

Coastal Water Temperatures

Place Temperature

Nearby Weather Stations